LPMR Airport Information

Runway Information
Runway 01 Length 9816 ft width 148 ft
Elevation 173 ft Threshold 886 ft Heading 2
Runway 19 Length 9816 ft Width 148 ft
Elevation 172 ft Threshold 863 ft Heading 182
Airport Frequencies
Type APP Name APP Frequency 121.7 MHZ
Type GND Name GND Frequency 119.725 MHZ
Type TWR Name TWR Frequency 122.1 MHZ
Airport Navaids
Type NDB Name Monte Real Frequency 336 KHZ
Type TACAN Name Monte Real Frequency 109600 KHZ
Airport Weather Information & NOTAM
ADDS - METARS form results

(1918 UTC 25 June 2018)
 
METAR text: LPMR 251900Z 34008KT 9999 SCT020 SCT035 19/15 Q1018
Conditions at: LPMR (MONTE REAL(POR-A, PT) observed 1900 UTC 25 June 2018
Temperature: 19.0°C (66°F)
Dewpoint: 15.0°C (59°F) [RH = 78%]
Pressure (altimeter): 30.06 inches Hg (1018.0 mb)
Winds: from the NNW (340 degrees) at 9 MPH (8 knots; 4.2 m/s)
Visibility: 6 or more miles (10+ km)
Ceiling: at least 12,000 feet AGL
Clouds: scattered clouds at 2000 feet AGL
scattered clouds at 3500 feet AGL
Weather: no significant weather observed at this time